Time;durP1;ratioP1;P1;durP2;ratioP2;P2;SDS_P1;SDS_P2;PMS_P1;PMS_P2;Temp;Humidity;BMP_temperature;BMP_pressure;BME280_temperature;BME280_humidity;BME280_pressure;Samples;Min_cycle;Max_cycle;Signal;HPM_P1;HPM_P2
2021/11/29 00:04:32;;;;;;;15.07;13.80;;;5.30;99.90;;;;;;10522169;28;20220;-77
2021/11/29 00:09:34;;;;;;;14.63;13.23;;;5.30;99.90;;;;;;10483256;28;20232;-79
2021/11/29 00:14:36;;;;;;;14.50;13.40;;;5.10;99.90;;;;;;10516823;28;20230;-78
2021/11/29 00:19:40;;;;;;;15.70;14.40;;;5.10;99.90;;;;;;10535198;28;20314;-79
2021/11/29 00:24:44;;;;;;;18.13;16.63;;;5.00;99.90;;;;;;10510371;28;20222;-79
2021/11/29 00:29:46;;;;;;;19.17;17.43;;;5.00;99.90;;;;;;10534403;28;20195;-79
2021/11/29 00:34:49;;;;;;;20.47;18.67;;;5.00;99.90;;;;;;10527911;28;20339;-79
2021/11/29 00:39:52;;;;;;;23.10;21.10;;;5.00;99.90;;;;;;10528322;28;20655;-80
2021/11/29 00:44:58;;;;;;;22.83;20.83;;;5.00;99.90;;;;;;10530119;28;20227;-78
2021/11/29 00:50:02;;;;;;;23.70;21.47;;;5.00;99.90;;;;;;10518329;28;20221;-80
2021/11/29 00:55:05;;;;;;;22.83;20.73;;;5.00;99.90;;;;;;10494291;28;20323;-78
2021/11/29 01:00:11;;;;;;;23.20;21.00;;;5.10;99.90;;;;;;10528416;28;20216;-79
2021/11/29 01:05:17;;;;;;;23.83;21.73;;;5.10;99.90;;;;;;10499217;28;20681;-79
2021/11/29 01:10:20;;;;;;;26.13;23.73;;;5.00;99.90;;;;;;10476936;28;20216;-82
2021/11/29 01:15:28;;;;;;;26.70;24.10;;;5.00;99.90;;;;;;10479383;28;20303;-81
2021/11/29 01:20:35;;;;;;;28.53;26.00;;;5.00;99.90;;;;;;10504013;28;20236;-81
2021/11/29 01:25:37;;;;;;;26.33;23.93;;;5.00;99.90;;;;;;10484393;28;20260;-80
2021/11/29 01:30:40;;;;;;;29.17;26.50;;;5.00;99.90;;;;;;10498862;28;20216;-80
2021/11/29 01:35:44;;;;;;;28.03;25.47;;;5.00;99.90;;;;;;10468434;28;20237;-80
2021/11/29 01:40:49;;;;;;;30.30;27.30;;;5.00;99.90;;;;;;10461464;28;20230;-79
2021/11/29 01:45:56;;;;;;;28.77;26.13;;;5.00;99.90;;;;;;10467437;28;20226;-79
2021/11/29 01:51:03;;;;;;;31.13;28.10;;;5.00;99.90;;;;;;10461052;28;20197;-79
2021/11/29 01:56:08;;;;;;;32.30;29.00;;;5.00;99.90;;;;;;10490156;28;20720;-78
2021/11/29 02:01:14;;;;;;;28.13;25.53;;;5.00;99.90;;;;;;10497355;28;20311;-82
2021/11/29 02:06:21;;;;;;;28.43;25.67;;;5.00;99.90;;;;;;10485765;28;20227;-80
2021/11/29 02:11:27;;;;;;;30.20;27.20;;;5.00;99.90;;;;;;10463887;28;20701;-82
2021/11/29 02:16:30;;;;;;;33.13;29.77;;;5.00;99.90;;;;;;10489455;28;20302;-79
2021/11/29 02:21:34;;;;;;;29.53;26.60;;;4.90;99.90;;;;;;10481147;28;20225;-81
2021/11/29 02:26:40;;;;;;;30.83;27.80;;;4.90;99.90;;;;;;10508957;28;20743;-79
2021/11/29 02:31:45;;;;;;;34.10;30.77;;;5.00;99.90;;;;;;10493313;28;20197;-79
2021/11/29 02:36:49;;;;;;;33.20;29.83;;;5.00;99.90;;;;;;10499628;22;20221;-80
2021/11/29 02:41:54;;;;;;;33.13;29.80;;;5.00;99.90;;;;;;10483752;28;20663;-80
2021/11/29 02:46:56;;;;;;;33.80;30.20;;;5.00;99.90;;;;;;10491263;28;20225;-79
2021/11/29 02:52:02;;;;;;;32.47;29.07;;;5.00;99.90;;;;;;10485852;28;20193;-79
2021/11/29 02:57:08;;;;;;;34.53;31.00;;;5.00;99.90;;;;;;10472405;28;20690;-80
2021/11/29 03:02:12;;;;;;;34.60;31.00;;;5.00;99.90;;;;;;10481986;28;20217;-80
2021/11/29 03:07:16;;;;;;;36.93;33.20;;;5.00;99.90;;;;;;10490029;28;20569;-79
2021/11/29 03:12:18;;;;;;;35.37;31.70;;;5.00;99.90;;;;;;10488818;28;20205;-80
2021/11/29 03:17:21;;;;;;;36.53;32.80;;;5.10;99.90;;;;;;10495810;28;20211;-80
2021/11/29 03:22:24;;;;;;;37.63;30.90;;;5.10;99.90;;;;;;10476567;28;20212;-79
2021/11/29 03:27:26;;;;;;;34.63;31.20;;;5.10;99.90;;;;;;10499541;28;20219;-80
2021/11/29 03:32:28;;;;;;;35.10;31.57;;;5.00;99.90;;;;;;10499620;28;20205;-80
2021/11/29 03:37:32;;;;;;;33.23;29.93;;;5.00;99.90;;;;;;10500215;28;20208;-80
2021/11/29 03:42:34;;;;;;;32.37;29.17;;;5.00;99.90;;;;;;10503693;28;20236;-80
2021/11/29 03:47:36;;;;;;;30.93;27.67;;;5.00;99.90;;;;;;10497705;28;20202;-79
2021/11/29 03:52:39;;;;;;;33.67;30.43;;;5.00;99.90;;;;;;10482104;28;20228;-79
2021/11/29 03:57:41;;;;;;;33.77;30.27;;;5.00;99.90;;;;;;10497822;28;20207;-79
2021/11/29 04:02:44;;;;;;;34.70;31.07;;;5.00;99.90;;;;;;10497704;28;20216;-80
2021/11/29 04:07:48;;;;;;;33.27;29.87;;;5.00;99.90;;;;;;10480000;28;20212;-79
2021/11/29 04:12:50;;;;;;;33.23;29.83;;;5.00;99.90;;;;;;10498054;28;20295;-79
2021/11/29 04:17:52;;;;;;;32.50;29.03;;;5.10;99.90;;;;;;10491111;28;20648;-79
2021/11/29 04:22:56;;;;;;;32.83;29.43;;;5.10;99.90;;;;;;10480032;28;20224;-79
2021/11/29 04:27:59;;;;;;;32.03;28.63;;;5.10;99.90;;;;;;10480765;28;20200;-80
2021/11/29 04:33:01;;;;;;;34.60;30.80;;;5.10;99.90;;;;;;10480543;28;20270;-80
2021/11/29 04:38:04;;;;;;;35.07;31.30;;;5.10;99.90;;;;;;10499323;28;20220;-80
2021/11/29 04:43:06;;;;;;;34.77;30.23;;;5.10;99.90;;;;;;10480099;28;20232;-79
2021/11/29 04:48:09;;;;;;;32.77;29.47;;;5.10;99.90;;;;;;10480813;28;20224;-79
2021/11/29 04:53:12;;;;;;;32.67;29.27;;;5.10;99.90;;;;;;10499072;28;20252;-79
2021/11/29 04:58:15;;;;;;;32.27;27.97;;;5.10;99.90;;;;;;10501515;28;21021;-80
2021/11/29 05:03:17;;;;;;;27.93;24.93;;;5.10;99.90;;;;;;10500746;28;20248;-80
2021/11/29 05:08:20;;;;;;;30.80;27.57;;;5.00;99.90;;;;;;10504487;28;20211;-80
2021/11/29 05:13:22;;;;;;;29.97;26.83;;;5.00;99.90;;;;;;10506081;28;20307;-80
2021/11/29 05:18:25;;;;;;;31.23;27.83;;;5.10;99.90;;;;;;10487184;28;20217;-80
2021/11/29 05:23:28;;;;;;;28.83;25.43;;;5.10;99.90;;;;;;10498602;28;20242;-80
2021/11/29 05:28:30;;;;;;;31.17;27.93;;;5.10;99.90;;;;;;10487293;28;20201;-80
2021/11/29 05:33:32;;;;;;;29.90;26.70;;;5.10;99.90;;;;;;10503278;28;20259;-80
2021/11/29 05:38:36;;;;;;;32.93;28.97;;;5.10;99.90;;;;;;10504919;28;20216;-80
2021/11/29 05:43:38;;;;;;;29.97;26.87;;;5.10;99.90;;;;;;10502868;28;20245;-80
2021/11/29 05:48:40;;;;;;;27.57;24.70;;;5.10;99.90;;;;;;10499820;28;20208;-80
2021/11/29 05:53:44;;;;;;;29.87;26.77;;;5.00;99.90;;;;;;10509095;28;20636;-79
2021/11/29 05:58:46;;;;;;;27.47;24.47;;;5.00;99.90;;;;;;10492699;28;20323;-79
2021/11/29 06:03:49;;;;;;;29.43;26.33;;;5.10;99.90;;;;;;10503067;28;20595;-79
2021/11/29 06:08:52;;;;;;;27.70;24.80;;;5.10;99.90;;;;;;10507572;28;20201;-79
2021/11/29 06:13:54;;;;;;;28.83;25.73;;;5.10;99.90;;;;;;10515024;28;20229;-80
2021/11/29 06:18:56;;;;;;;24.87;22.20;;;5.10;99.90;;;;;;10509545;28;20242;-80
2021/11/29 06:24:00;;;;;;;25.57;22.90;;;5.10;99.90;;;;;;10510018;28;20320;-80
2021/11/29 06:29:02;;;;;;;26.33;22.00;;;5.00;99.90;;;;;;10510457;28;20215;-80
2021/11/29 06:34:04;;;;;;;25.13;22.53;;;5.00;99.90;;;;;;10508377;28;20232;-80
2021/11/29 06:39:07;;;;;;;23.43;21.03;;;5.00;99.90;;;;;;10508713;28;20313;-80
2021/11/29 06:44:09;;;;;;;23.57;21.13;;;5.00;99.90;;;;;;10508731;28;20232;-80
2021/11/29 06:49:11;;;;;;;25.27;22.67;;;5.00;99.90;;;;;;10510199;28;20295;-80
2021/11/29 06:54:15;;;;;;;24.97;22.27;;;5.00;99.90;;;;;;10508709;28;20247;-80
2021/11/29 06:59:18;;;;;;;22.93;20.63;;;5.00;99.90;;;;;;10491998;28;20228;-80
2021/11/29 07:04:20;;;;;;;22.53;20.13;;;5.00;99.90;;;;;;10503763;28;20216;-81
2021/11/29 07:09:23;;;;;;;23.90;21.37;;;4.90;99.90;;;;;;10509872;28;20299;-81
2021/11/29 07:14:27;;;;;;;19.40;17.50;;;4.90;99.90;;;;;;10513289;28;20220;-80
2021/11/29 07:19:29;;;;;;;21.20;18.87;;;4.90;99.90;;;;;;10508658;28;20224;-78
2021/11/29 07:24:32;;;;;;;21.00;18.80;;;4.90;99.90;;;;;;10508299;28;20292;-80
2021/11/29 07:29:34;;;;;;;19.90;17.80;;;4.90;99.90;;;;;;10508727;28;20210;-81
2021/11/29 07:34:36;;;;;;;20.10;17.30;;;4.90;99.90;;;;;;10504753;28;20327;-81
2021/11/29 07:39:40;;;;;;;17.10;15.37;;;4.90;99.90;;;;;;10505298;28;20212;-82
2021/11/29 07:44:42;;;;;;;17.83;15.80;;;5.00;99.90;;;;;;10503860;28;20235;-81
2021/11/29 07:49:44;;;;;;;21.47;14.70;;;5.00;99.90;;;;;;10489450;28;20201;-81
2021/11/29 07:54:48;;;;;;;15.83;14.23;;;5.00;99.90;;;;;;10487326;28;20242;-81
2021/11/29 07:59:50;;;;;;;16.50;13.37;;;5.00;99.90;;;;;;10505558;28;20601;-81
2021/11/29 08:04:53;;;;;;;15.93;14.33;;;5.00;99.90;;;;;;10487119;28;20667;-81
2021/11/29 08:09:57;;;;;;;15.60;13.73;;;5.00;99.90;;;;;;10502720;28;20251;-81
2021/11/29 08:14:59;;;;;;;16.57;13.50;;;5.00;99.90;;;;;;10502580;28;20212;-81
2021/11/29 08:20:01;;;;;;;14.67;12.80;;;5.00;99.90;;;;;;10500409;28;20244;-81
2021/11/29 08:25:06;;;;;;;14.67;12.97;;;5.10;99.90;;;;;;10501977;28;20753;-81
2021/11/29 08:30:11;;;;;;;14.20;12.60;;;5.10;99.90;;;;;;10499417;28;20196;-81
2021/11/29 08:35:15;;;;;;;14.80;13.10;;;5.10;99.90;;;;;;10509541;28;20244;-81
2021/11/29 08:40:25;;;;;;;15.37;12.77;;;5.20;99.90;;;;;;10506529;28;20228;-81
2021/11/29 08:45:28;;;;;;;13.90;12.27;;;5.20;99.90;;;;;;10508432;28;20227;-81
2021/11/29 08:50:31;;;;;;;12.70;11.37;;;5.20;99.90;;;;;;10490956;28;20258;-81
2021/11/29 08:55:35;;;;;;;14.67;12.60;;;5.20;99.90;;;;;;10490948;28;20287;-81
2021/11/29 09:00:39;;;;;;;12.43;10.57;;;5.20;99.90;;;;;;10490940;28;20235;-81
2021/11/29 09:05:44;;;;;;;11.80;10.43;;;5.20;99.90;;;;;;10502426;28;20231;-81
2021/11/29 09:10:48;;;;;;;13.93;12.43;;;5.20;99.90;;;;;;10489623;28;20748;-81
2021/11/29 09:15:51;;;;;;;11.03;9.93;;;5.10;99.90;;;;;;10488786;28;20651;-80
2021/11/29 09:20:53;;;;;;;13.30;11.30;;;5.10;99.90;;;;;;10481845;28;20220;-81
2021/11/29 09:25:56;;;;;;;14.23;11.70;;;5.00;99.90;;;;;;10487785;28;20220;-81
2021/11/29 09:30:59;;;;;;;11.60;10.17;;;5.00;99.90;;;;;;10490545;28;20250;-81
2021/11/29 09:36:01;;;;;;;10.97;9.87;;;5.00;99.90;;;;;;10472994;28;20247;-81
2021/11/29 09:41:06;;;;;;;12.80;10.10;;;5.10;99.90;;;;;;10489342;28;20232;-81
2021/11/29 09:46:08;;;;;;;11.00;9.90;;;5.00;99.90;;;;;;10492325;28;20228;-80
2021/11/29 09:51:11;;;;;;;17.13;9.33;;;5.00;99.90;;;;;;10472962;28;20221;-81
2021/11/29 09:56:14;;;;;;;14.03;9.70;;;5.10;99.90;;;;;;10477603;28;20220;-81
2021/11/29 10:01:18;;;;;;;9.63;8.57;;;5.20;99.90;;;;;;10493246;28;20232;-80
2021/11/29 10:06:20;;;;;;;11.73;7.63;;;5.30;99.90;;;;;;10511547;28;20229;-81
2021/11/29 10:11:25;;;;;;;8.30;7.10;;;5.40;99.90;;;;;;10476109;28;20220;-81
2021/11/29 10:16:39;;;;;;;7.77;6.70;;;5.50;99.90;;;;;;10489136;28;20516;-81
2021/11/29 10:21:41;;;;;;;8.97;7.20;;;5.60;99.90;;;;;;10491290;28;20258;-81
2021/11/29 10:26:49;;;;;;;6.67;6.07;;;5.80;99.90;;;;;;10470767;28;20232;-81
2021/11/29 10:31:53;;;;;;;7.83;6.60;;;5.90;99.90;;;;;;10488506;28;20201;-82
2021/11/29 10:36:58;;;;;;;7.37;6.27;;;6.00;99.90;;;;;;10490512;28;20225;-81
2021/11/29 10:42:04;;;;;;;8.73;7.20;;;6.00;99.90;;;;;;10488225;28;20278;-81
2021/11/29 10:47:08;;;;;;;6.97;6.33;;;6.00;99.90;;;;;;10484592;28;20703;-82
2021/11/29 10:52:18;;;;;;;8.30;6.87;;;6.00;99.90;;;;;;10502746;28;20620;-82
2021/11/29 10:57:23;;;;;;;7.50;6.03;;;6.00;99.90;;;;;;10518050;28;20262;-80
2021/11/29 11:02:27;;;;;;;8.07;7.27;;;6.10;99.90;;;;;;10493539;28;20220;-80
2021/11/29 11:07:33;;;;;;;6.80;6.20;;;6.20;99.90;;;;;;10495356;28;20211;-80
2021/11/29 11:12:37;;;;;;;7.73;6.93;;;6.30;99.90;;;;;;10496625;28;20217;-80
2021/11/29 11:17:39;;;;;;;9.73;7.37;;;6.30;99.90;;;;;;10508469;28;20204;-80
2021/11/29 11:22:44;;;;;;;8.57;7.60;;;6.30;99.90;;;;;;10496968;28;20252;-80
2021/11/29 11:27:59;;;;;;;9.10;7.97;;;6.40;99.90;;;;;;10497841;28;20703;-80
2021/11/29 11:33:05;;;;;;;12.10;7.63;;;6.30;99.90;;;;;;10497314;28;20244;-80
2021/11/29 11:38:11;;;;;;;9.40;6.80;;;6.20;99.90;;;;;;10495047;28;20243;-80
2021/11/29 11:43:17;;;;;;;9.57;7.30;;;6.10;99.90;;;;;;10497447;28;20712;-80
2021/11/29 11:48:20;;;;;;;8.27;6.93;;;6.00;99.90;;;;;;10478669;28;20669;-80
2021/11/29 11:53:23;;;;;;;7.27;6.57;;;5.90;99.90;;;;;;10494666;28;20217;-80
2021/11/29 11:58:33;;;;;;;8.20;7.03;;;5.80;99.90;;;;;;10480801;28;20588;-80
2021/11/29 12:03:38;;;;;;;8.73;7.20;;;5.70;99.90;;;;;;10494870;28;20502;-80
2021/11/29 12:08:45;;;;;;;6.83;6.23;;;5.70;99.90;;;;;;10470007;28;20208;-80
2021/11/29 12:13:48;;;;;;;7.40;6.67;;;5.70;99.90;;;;;;10488552;28;20723;-80
2021/11/29 12:18:50;;;;;;;8.20;7.50;;;5.80;99.90;;;;;;10494511;28;20542;-80
2021/11/29 12:23:56;;;;;;;8.23;6.83;;;5.90;99.90;;;;;;10475387;28;20632;-79
2021/11/29 12:28:59;;;;;;;7.20;6.20;;;6.10;99.90;;;;;;10466434;28;20207;-80
2021/11/29 12:34:04;;;;;;;6.57;6.07;;;6.10;99.90;;;;;;10488414;28;20730;-80
2021/11/29 12:39:06;;;;;;;7.80;6.90;;;6.20;99.90;;;;;;10476305;28;20710;-80
2021/11/29 12:44:10;;;;;;;8.83;7.80;;;6.30;99.90;;;;;;10497621;28;20323;-80
2021/11/29 12:49:35;;;;;;;8.60;7.17;;;6.40;99.90;;;;;;10498476;28;20254;-80
2021/11/29 12:54:43;;;;;;;7.57;6.87;;;6.40;99.90;;;;;;10499309;28;20271;-80
2021/11/29 12:59:52;;;;;;;9.10;7.73;;;6.40;99.90;;;;;;10497389;28;20216;-80
2021/11/29 13:04:54;;;;;;;7.37;6.50;;;6.50;99.90;;;;;;10507757;28;20235;-81
2021/11/29 13:09:56;;;;;;;8.27;7.27;;;6.40;99.90;;;;;;10491029;28;20207;-81
2021/11/29 13:20:45;;;;;;;9.57;8.10;;;6.40;99.90;;;;;;10567619;27;20519;-79
2021/11/29 13:25:47;;;;;;;8.67;7.80;;;6.40;99.90;;;;;;10506913;28;20227;-78
2021/11/29 13:30:52;;;;;;;9.20;8.30;;;6.30;99.90;;;;;;10527620;28;20195;-78
2021/11/29 13:36:03;;;;;;;9.93;8.50;;;6.30;99.90;;;;;;10528742;28;20215;-77
2021/11/29 13:41:05;;;;;;;10.77;8.60;;;6.20;99.90;;;;;;10528143;28;20610;-78
2021/11/29 13:46:12;;;;;;;11.03;9.10;;;6.20;99.90;;;;;;10529760;28;20220;-78
2021/11/29 13:51:16;;;;;;;9.37;8.37;;;6.20;99.90;;;;;;10529291;28;20278;-79
2021/11/29 13:56:22;;;;;;;8.83;8.00;;;6.20;99.90;;;;;;10526693;28;20329;-78
2021/11/29 14:01:28;;;;;;;9.67;8.77;;;6.20;99.90;;;;;;10525533;28;20200;-78
2021/11/29 14:06:32;;;;;;;8.80;8.00;;;6.20;99.90;;;;;;10528832;28;20683;-78
2021/11/29 14:11:38;;;;;;;9.67;7.57;;;6.20;99.90;;;;;;10527409;28;20261;-78
2021/11/29 14:16:42;;;;;;;9.90;8.70;;;6.10;99.90;;;;;;10527831;28;20220;-78
2021/11/29 14:21:48;;;;;;;7.83;7.13;;;6.00;99.90;;;;;;10526954;28;20196;-78
2021/11/29 14:26:55;;;;;;;8.70;7.90;;;6.00;99.90;;;;;;10526606;28;20711;-78
2021/11/29 14:32:01;;;;;;;8.80;8.00;;;6.00;99.90;;;;;;10498181;28;20200;-79
2021/11/29 14:37:07;;;;;;;8.63;7.73;;;6.00;99.90;;;;;;10427361;23;20222;-83
2021/11/29 14:42:11;;;;;;;8.53;7.77;;;6.10;99.90;;;;;;10407801;28;20260;-82
2021/11/29 14:47:16;;;;;;;8.53;7.73;;;6.00;99.90;;;;;;10423615;28;20230;-82
2021/11/29 14:52:22;;;;;;;9.00;8.10;;;6.00;99.90;;;;;;10424580;28;20577;-82
2021/11/29 14:57:25;;;;;;;8.63;7.40;;;6.10;99.90;;;;;;10406493;28;20309;-82
2021/11/29 15:02:27;;;;;;;7.27;6.57;;;6.10;99.90;;;;;;10406275;28;20204;-83
2021/11/29 15:07:31;;;;;;;9.87;6.20;;;6.00;99.90;;;;;;10407173;28;20230;-83
2021/11/29 15:12:36;;;;;;;6.90;6.30;;;6.00;99.90;;;;;;10424287;28;20208;-83
2021/11/29 15:17:44;;;;;;;7.70;6.90;;;6.00;99.90;;;;;;10422563;28;20716;-82
2021/11/29 15:22:52;;;;;;;7.73;7.00;;;6.00;99.90;;;;;;10422970;28;20232;-82
2021/11/29 15:27:55;;;;;;;7.57;6.73;;;6.00;99.90;;;;;;10425503;28;20212;-83
2021/11/29 15:33:00;;;;;;;5.83;5.43;;;6.00;99.90;;;;;;10408202;28;20206;-83
2021/11/29 15:38:11;;;;;;;7.33;6.50;;;6.00;99.90;;;;;;10408519;28;20240;-82
2021/11/29 15:43:29;;;;;;;8.03;6.80;;;5.90;99.90;;;;;;10426515;28;20231;-83
2021/11/29 15:48:35;;;;;;;7.20;6.50;;;5.90;99.90;;;;;;10430798;28;20565;-82
2021/11/29 15:53:42;;;;;;;6.47;5.97;;;5.90;99.90;;;;;;10428775;28;20228;-82
2021/11/29 15:58:45;;;;;;;6.47;5.87;;;5.90;99.90;;;;;;10429760;28;20225;-81
2021/11/29 16:03:50;;;;;;;6.40;5.90;;;5.80;99.90;;;;;;10431025;28;20214;-82
2021/11/29 16:08:54;;;;;;;7.03;6.43;;;5.90;99.90;;;;;;10429260;28;20205;-81
2021/11/29 16:13:58;;;;;;;5.90;5.50;;;5.90;99.90;;;;;;10410540;28;20229;-82
2021/11/29 16:19:01;;;;;;;6.50;5.83;;;5.90;99.90;;;;;;10409056;28;20771;-81
2021/11/29 16:24:06;;;;;;;6.47;5.97;;;5.80;99.90;;;;;;10409941;28;20226;-82
2021/11/29 16:29:08;;;;;;;6.23;5.73;;;5.90;99.90;;;;;;10425834;28;20206;-82
2021/11/29 16:34:10;;;;;;;5.60;5.10;;;5.90;99.90;;;;;;10425590;28;20238;-82
2021/11/29 16:39:14;;;;;;;6.43;5.80;;;5.80;99.90;;;;;;10417282;28;20233;-82
2021/11/29 16:44:16;;;;;;;6.87;6.30;;;5.80;99.90;;;;;;10422069;28;20234;-82
2021/11/29 16:49:18;;;;;;;6.27;5.77;;;5.60;99.90;;;;;;10424089;28;20625;-82
2021/11/29 16:54:22;;;;;;;6.50;5.87;;;5.50;99.90;;;;;;10421664;28;20241;-82
2021/11/29 16:59:24;;;;;;;6.57;5.97;;;5.30;99.90;;;;;;10407721;28;20249;-83
2021/11/29 17:04:27;;;;;;;14.50;12.20;;;5.20;99.90;;;;;;10425495;28;20240;-82
2021/11/29 17:09:30;;;;;;;6.73;6.03;;;5.10;99.90;;;;;;10422090;28;20221;-82
2021/11/29 17:14:33;;;;;;;8.63;6.70;;;5.20;99.90;;;;;;10407425;28;20661;-82
2021/11/29 17:19:35;;;;;;;8.60;5.80;;;5.10;99.90;;;;;;10413561;28;20272;-82
2021/11/29 17:24:39;;;;;;;8.60;6.17;;;5.10;99.90;;;;;;10421388;28;20225;-83
2021/11/29 17:29:41;;;;;;;5.93;5.30;;;5.20;99.90;;;;;;10408022;28;20270;-82
2021/11/29 17:34:43;;;;;;;6.57;5.57;;;5.10;99.90;;;;;;10408421;28;20233;-83
2021/11/29 17:39:47;;;;;;;6.73;5.90;;;5.10;99.90;;;;;;10407726;28;20245;-83
2021/11/29 17:44:49;;;;;;;6.63;6.00;;;5.10;99.90;;;;;;10417614;28;20236;-83
2021/11/29 17:49:51;;;;;;;6.57;5.70;;;5.10;99.90;;;;;;10426904;28;20202;-82
2021/11/29 17:54:54;;;;;;;6.90;6.30;;;5.10;99.90;;;;;;10425204;28;20226;-82
2021/11/29 17:59:56;;;;;;;6.87;6.27;;;5.20;99.90;;;;;;10424546;28;20690;-82
2021/11/29 18:04:59;;;;;;;7.90;6.57;;;5.30;99.90;;;;;;10418596;28;20237;-80
2021/11/29 18:15:22;;;;;;;9.30;5.70;;;5.40;99.90;;;;;;10415438;28;20271;-83
2021/11/29 18:20:24;;;;;;;5.30;4.80;;;5.50;99.90;;;;;;10428271;28;20591;-83
2021/11/29 18:25:28;;;;;;;7.17;6.57;;;5.50;99.90;;;;;;10429728;28;20599;-82
2021/11/29 18:30:30;;;;;;;7.30;6.00;;;5.60;99.90;;;;;;10431428;28;20220;-82
2021/11/29 18:35:33;;;;;;;5.63;5.20;;;5.60;99.90;;;;;;10430823;28;20230;-83
2021/11/29 18:40:37;;;;;;;4.43;4.03;;;5.60;99.90;;;;;;10433053;28;20225;-82
2021/11/29 18:45:42;;;;;;;6.53;4.80;;;5.70;99.90;;;;;;10416867;28;20225;-82
2021/11/29 18:50:45;;;;;;;5.53;5.00;;;5.60;99.90;;;;;;10414604;28;20313;-81
2021/11/29 18:55:49;;;;;;;5.07;4.67;;;5.60;99.90;;;;;;10430378;28;20312;-83
2021/11/29 19:00:58;;;;;;;4.73;4.33;;;5.60;99.90;;;;;;10430276;28;20233;-83
2021/11/29 19:06:01;;;;;;;4.80;4.50;;;5.60;99.90;;;;;;10428280;28;20557;-81
2021/11/29 19:11:07;;;;;;;4.57;4.27;;;5.70;99.90;;;;;;10410133;28;20201;-83
2021/11/29 19:16:10;;;;;;;4.83;4.50;;;5.80;99.90;;;;;;10427519;28;20222;-82
2021/11/29 19:21:12;;;;;;;4.50;4.20;;;5.70;99.90;;;;;;10427091;28;20589;-83
2021/11/29 19:26:16;;;;;;;4.43;3.50;;;5.80;99.90;;;;;;10409445;28;20261;-83
2021/11/29 19:31:18;;;;;;;5.07;4.60;;;5.80;99.90;;;;;;10407638;28;20229;-81
2021/11/29 19:36:26;;;;;;;3.83;3.53;;;5.80;99.90;;;;;;10425775;28;20249;-81
2021/11/29 19:41:42;;;;;;;4.50;4.20;;;5.80;99.90;;;;;;10425676;28;20252;-80
2021/11/29 19:46:46;;;;;;;12.53;10.43;;;5.80;99.90;;;;;;10427752;28;20231;-81
2021/11/29 19:51:48;;;;;;;5.47;4.97;;;5.90;99.90;;;;;;10427465;28;20229;-81
2021/11/29 19:56:55;;;;;;;4.90;4.53;;;5.80;99.90;;;;;;10410322;28;20743;-81
2021/11/29 20:01:58;;;;;;;4.73;4.33;;;5.90;99.90;;;;;;10426575;28;20210;-81
2021/11/29 20:07:00;;;;;;;4.40;4.10;;;5.90;99.90;;;;;;10416001;28;20289;-81
2021/11/29 20:12:04;;;;;;;5.73;3.80;;;5.90;99.90;;;;;;10409197;28;20198;-82
2021/11/29 20:17:07;;;;;;;4.50;4.20;;;5.90;99.90;;;;;;10418466;28;20214;-84
2021/11/29 20:22:11;;;;;;;5.33;4.93;;;5.80;99.90;;;;;;10411660;28;20213;-81
2021/11/29 20:27:15;;;;;;;4.70;4.30;;;5.80;99.90;;;;;;10406151;28;20210;-80
2021/11/29 20:32:17;;;;;;;3.63;3.43;;;5.80;99.90;;;;;;10405238;28;20198;-81
2021/11/29 20:37:19;;;;;;;3.57;3.37;;;5.80;99.90;;;;;;10414332;28;20264;-81
2021/11/29 20:42:23;;;;;;;4.13;3.80;;;5.90;99.90;;;;;;10421747;28;20657;-81
2021/11/29 20:47:25;;;;;;;4.00;3.70;;;5.90;99.90;;;;;;10412956;28;20703;-80
2021/11/29 20:52:29;;;;;;;4.07;3.77;;;5.90;99.90;;;;;;10393817;28;20403;-82
2021/11/29 20:57:33;;;;;;;4.23;3.93;;;5.90;99.90;;;;;;10417752;28;20264;-82
2021/11/29 21:02:36;;;;;;;4.17;3.80;;;5.80;99.90;;;;;;10400024;28;20658;-82
2021/11/29 21:07:38;;;;;;;4.07;3.77;;;5.80;99.90;;;;;;10417081;28;20264;-81
2021/11/29 21:12:42;;;;;;;4.50;4.17;;;5.80;99.90;;;;;;10394090;28;20206;-82
2021/11/29 21:17:44;;;;;;;4.90;4.50;;;5.80;99.90;;;;;;10396144;28;20237;-82
2021/11/29 21:22:47;;;;;;;5.70;5.20;;;5.70;99.90;;;;;;10396902;28;20208;-81
2021/11/29 21:27:50;;;;;;;5.20;4.70;;;5.70;99.90;;;;;;10382139;28;20208;-82
2021/11/29 21:32:53;;;;;;;5.50;4.70;;;5.70;99.90;;;;;;10414317;28;20221;-82
2021/11/29 21:37:55;;;;;;;5.00;4.70;;;5.70;99.90;;;;;;10403527;28;20221;-82
2021/11/29 21:42:58;;;;;;;6.53;5.73;;;5.70;99.90;;;;;;10416289;28;20297;-82
2021/11/29 21:48:01;;;;;;;5.07;4.67;;;5.70;99.90;;;;;;10412711;28;20197;-82
2021/11/29 21:53:03;;;;;;;6.23;5.20;;;5.70;99.90;;;;;;10433266;28;20737;-82
2021/11/29 21:58:08;;;;;;;6.07;5.57;;;5.70;99.90;;;;;;10409813;28;20260;-81
2021/11/29 22:03:10;;;;;;;5.27;4.87;;;5.70;99.90;;;;;;10424535;28;20236;-81
2021/11/29 22:08:12;;;;;;;5.53;5.10;;;5.70;99.90;;;;;;10397954;28;20293;-81
2021/11/29 22:13:16;;;;;;;5.60;5.13;;;5.70;99.90;;;;;;10416962;28;20691;-81
2021/11/29 22:18:18;;;;;;;6.30;5.60;;;5.70;99.90;;;;;;10406496;28;20214;-83
2021/11/29 22:23:20;;;;;;;6.20;5.60;;;5.70;99.90;;;;;;10402620;28;20253;-81
2021/11/29 22:28:23;;;;;;;6.17;5.67;;;5.70;99.90;;;;;;10417042;28;20300;-82
2021/11/29 22:33:26;;;;;;;6.57;5.97;;;5.70;99.90;;;;;;10406645;28;20226;-81
2021/11/29 22:38:28;;;;;;;6.33;5.83;;;5.70;99.90;;;;;;10416384;28;20305;-81
2021/11/29 22:43:32;;;;;;;5.20;4.80;;;5.70;99.90;;;;;;10396319;28;20245;-80
2021/11/29 22:48:35;;;;;;;5.83;5.33;;;5.80;99.90;;;;;;10401131;28;20289;-81
2021/11/29 22:53:38;;;;;;;6.20;5.70;;;5.70;99.90;;;;;;10404096;28;20361;-82
2021/11/29 22:58:44;;;;;;;5.97;5.47;;;5.70;99.90;;;;;;10428494;28;20248;-81
2021/11/29 23:03:47;;;;;;;6.00;5.50;;;5.80;99.90;;;;;;10430941;28;20560;-83
2021/11/29 23:08:52;;;;;;;5.93;5.43;;;5.70;99.90;;;;;;10392251;28;20210;-84
2021/11/29 23:13:57;;;;;;;6.50;5.97;;;5.70;99.90;;;;;;10413838;28;20234;-84
2021/11/29 23:19:00;;;;;;;5.93;5.43;;;5.70;99.90;;;;;;10419502;28;20589;-84
2021/11/29 23:24:04;;;;;;;6.03;5.63;;;5.70;99.90;;;;;;10402565;28;20287;-83
2021/11/29 23:29:07;;;;;;;6.40;5.90;;;5.70;99.90;;;;;;10403457;28;20782;-83
2021/11/29 23:34:10;;;;;;;5.93;5.53;;;5.70;99.90;;;;;;10411989;28;20781;-82
2021/11/29 23:39:13;;;;;;;7.00;6.47;;;5.70;99.90;;;;;;10388334;28;20217;-83
2021/11/29 23:44:22;;;;;;;7.50;6.90;;;5.70;99.90;;;;;;10415900;28;20242;-82
2021/11/29 23:49:37;;;;;;;7.70;7.00;;;5.70;99.90;;;;;;10397586;28;20206;-82
2021/11/29 23:54:40;;;;;;;8.30;7.57;;;5.70;99.90;;;;;;10393132;28;20228;-83
2021/11/29 23:59:46;;;;;;;8.10;7.03;;;5.80;99.90;;;;;;10388412;28;20238;-83
